Grande Mariner — WCY6594 — position and weather

sailwx.info

Track history (hours):
 
Tides and Currents Weather Stations Pressure Air Temp Water Temp Dewpoint Dewpoint Depression Visibility Wind Speed Wind Dir Waves Ship Positions

Grande Mariner

Owner: AMERICAN CANADIAN CARIBBEAN LINE INC, WARREN, RI. More information available from US FCC via Universal Licensing System and Coast Guard Vessel Documentation Center.

Last reported at 2014-Oct-27 15:11 UTC. Time now 2014-Oct-30 22:59 UTC.
Position N 41°43' W 071°17'.

Length 56 m; draft 2 m.

Type: Passenger vessel. MMSI: 369024000.

Date/timePositionNaut miles runAvg speedWind from/ knotsBaromVisibWave heightAir tempDewpointWater temp
2014-Oct-27 15:11N 41°43' W 071°17'3 5.2
2014-Oct-27 14:33N 41°40' W 071°19'0 0.5
2014-Oct-27 13:32N 41°41' W 071°19'3 2.6
2014-Oct-27 12:27N 41°43' W 071°17'0 0.0
2014-Oct-27 11:32N 41°43' W 071°17'0 0.0
2014-Oct-27 10:22N 41°43' W 071°17'0 0.0
2014-Oct-27 09:33N 41°43' W 071°17'0 0.0
2014-Oct-27 08:33N 41°43' W 071°17'0 0.0
2014-Oct-27 07:33N 41°43' W 071°17'2 2.2
2014-Oct-27 06:33N 41°41' W 071°18'9 8.9
2014-Oct-27 05:33N 41°33' W 071°20'8 8.4
2014-Oct-27 04:33N 41°25' W 071°24'9 9.0
2014-Oct-27 03:33N 41°19' W 071°33'9 9.3
2014-Oct-27 02:33N 41°17' W 071°46'9 9.0
2014-Oct-27 01:33N 41°15' W 071°57'9 9.3
2014-Oct-27 00:33N 41°13' W 072°09'1010.1
2014-Oct-26 23:33N 41°10' W 072°22'1110.6
2014-Oct-26 22:33N 41°07' W 072°36'1110.5
2014-Oct-26 21:33N 41°05' W 072°49'1210.6
2014-Oct-26 20:23N 41°02' W 073°05'910.5
2014-Oct-26 19:33N 41°01' W 073°17'1110.0
2014-Oct-26 18:29N 40°58' W 073°30'13 9.8
2014-Oct-26 17:11N 40°52' W 073°45'13 8.2
2014-Oct-26 15:33N 40°43' W 073°58'3 2.7
2014-Oct-26 14:33N 40°45' W 074°01'0 0.0
2014-Oct-26 13:33N 40°45' W 074°01'0 0.0
2014-Oct-26 12:33N 40°45' W 074°01'0 0.0
2014-Oct-26 11:33N 40°45' W 074°01'0 0.0
2014-Oct-26 10:33N 40°45' W 074°01'0 0.0
2014-Oct-26 09:33N 40°45' W 074°01'0 0.0
2014-Oct-26 08:33N 40°45' W 074°01'0 0.0
2014-Oct-26 07:33N 40°45' W 074°01'0 0.0
2014-Oct-26 06:33N 40°45' W 074°01'0 0.0
2014-Oct-26 05:33N 40°45' W 074°01'0 0.0
2014-Oct-26 04:33N 40°45' W 074°01'0 0.0
2014-Oct-26 03:33N 40°45' W 074°01'0 0.0
2014-Oct-26 02:33N 40°45' W 074°01'0 0.0
2014-Oct-26 01:33N 40°45' W 074°01'0 0.0
2014-Oct-26 00:33N 40°45' W 074°01'0 0.0
2014-Oct-25 23:33N 40°45' W 074°01'0 0.0
2014-Oct-25 22:33N 40°45' W 074°01'0 0.0
2014-Oct-25 21:33N 40°45' W 074°01'0 0.0
2014-Oct-25 20:33N 40°45' W 074°01'0 0.0
2014-Oct-25 19:33N 40°45' W 074°01'0 0.0
2014-Oct-25 18:33N 40°45' W 074°01'0 0.0
2014-Oct-25 17:33N 40°45' W 074°01'0 0.0
2014-Oct-25 16:33N 40°45' W 074°01'0 0.0
2014-Oct-25 15:33N 40°45' W 074°01'0 0.0
2014-Oct-25 14:33N 40°45' W 074°01'0 0.0
2014-Oct-25 13:33N 40°45' W 074°01'0 0.0
2014-Oct-25 12:33N 40°45' W 074°01'0 0.0
2014-Oct-25 11:33N 40°45' W 074°01'0 0.0
2014-Oct-25 10:33N 40°45' W 074°01'0 0.0
2014-Oct-25 09:28N 40°45' W 074°01'0 0.0
2014-Oct-25 08:33N 40°45' W 074°01'0 0.0
2014-Oct-25 07:33N 40°45' W 074°01'0 0.0
2014-Oct-25 06:33N 40°45' W 074°01'0 0.0
2014-Oct-25 05:34N 40°45' W 074°01'0 0.0
2014-Oct-25 04:33N 40°45' W 074°01'0 0.0
2014-Oct-25 03:33N 40°45' W 074°01'0 0.0
2014-Oct-25 02:33N 40°45' W 074°01'0 0.0
2014-Oct-25 01:33N 40°45' W 074°01'0 0.0
2014-Oct-25 00:33N 40°45' W 074°01'4 3.8
2014-Oct-24 23:33N 40°41' W 074°02'4 3.8
2014-Oct-24 22:33N 40°45' W 074°01'0 0.0
2014-Oct-24 21:33N 40°45' W 074°01'0 0.0
2014-Oct-24 20:33N 40°45' W 074°01'0 0.0
2014-Oct-24 19:33N 40°45' W 074°01'0 0.0
2014-Oct-24 18:33N 40°45' W 074°01'0 0.0
2014-Oct-24 17:33N 40°45' W 074°01'0 0.0
2014-Oct-24 16:33N 40°45' W 074°01'0 0.0
2014-Oct-24 15:33N 40°45' W 074°01'0 0.0
2014-Oct-24 14:33N 40°45' W 074°01'0 0.0
2014-Oct-24 13:33N 40°45' W 074°01'0 0.0
2014-Oct-24 12:33N 40°45' W 074°01'0 0.0
2014-Oct-24 11:33N 40°45' W 074°01'0 0.0
2014-Oct-24 10:33N 40°45' W 074°01'0 0.0
2014-Oct-24 09:34N 40°45' W 074°01'0 0.0
2014-Oct-24 08:33N 40°45' W 074°01'0 0.0
2014-Oct-24 07:33N 40°45' W 074°01'0 0.0
2014-Oct-24 06:34N 40°45' W 074°01'0 0.0
2014-Oct-24 05:33N 40°45' W 074°01'0 0.0
2014-Oct-24 04:33N 40°45' W 074°01'0 0.0
2014-Oct-24 03:34N 40°45' W 074°01'0 0.0
2014-Oct-24 02:34N 40°45' W 074°01'2 1.6
2014-Oct-24 01:33N 40°46' W 073°60'  
2014-Oct-19 04:12N 44°03' W 076°25'6 9.6
2014-Oct-19 03:33N 44°08' W 076°21'  
Track history (hours):
 
Tides and Currents Weather Stations Pressure Air Temp Water Temp Dewpoint Dewpoint Depression Visibility Wind Speed Wind Dir Waves Ship Positions

Grande Mariner

Owner: AMERICAN CANADIAN CARIBBEAN LINE INC, WARREN, RI. More information available from US FCC via Universal Licensing System and Coast Guard Vessel Documentation Center.

Last reported at 2014-Oct-27 15:11 UTC. Time now 2014-Oct-30 22:59 UTC.
Position N 41°43' W 071°17'.

Length 56 m; draft 2 m.

Type: Passenger vessel. MMSI: 369024000.

Date/timePositionNaut miles runAvg speedWind from/ knotsBaromVisibWave heightAir tempDewpointWater temp
2014-Oct-27 15:11N 41°43' W 071°17'3 5.2
2014-Oct-27 14:33N 41°40' W 071°19'0 0.5
2014-Oct-27 13:32N 41°41' W 071°19'3 2.6
2014-Oct-27 12:27N 41°43' W 071°17'0 0.0
2014-Oct-27 11:32N 41°43' W 071°17'0 0.0
2014-Oct-27 10:22N 41°43' W 071°17'0 0.0
2014-Oct-27 09:33N 41°43' W 071°17'0 0.0
2014-Oct-27 08:33N 41°43' W 071°17'0 0.0
2014-Oct-27 07:33N 41°43' W 071°17'2 2.2
2014-Oct-27 06:33N 41°41' W 071°18'9 8.9
2014-Oct-27 05:33N 41°33' W 071°20'8 8.4
2014-Oct-27 04:33N 41°25' W 071°24'9 9.0
2014-Oct-27 03:33N 41°19' W 071°33'9 9.3
2014-Oct-27 02:33N 41°17' W 071°46'9 9.0
2014-Oct-27 01:33N 41°15' W 071°57'9 9.3
2014-Oct-27 00:33N 41°13' W 072°09'1010.1
2014-Oct-26 23:33N 41°10' W 072°22'1110.6
2014-Oct-26 22:33N 41°07' W 072°36'1110.5
2014-Oct-26 21:33N 41°05' W 072°49'1210.6
2014-Oct-26 20:23N 41°02' W 073°05'910.5
2014-Oct-26 19:33N 41°01' W 073°17'1110.0
2014-Oct-26 18:29N 40°58' W 073°30'13 9.8
2014-Oct-26 17:11N 40°52' W 073°45'13 8.2
2014-Oct-26 15:33N 40°43' W 073°58'3 2.7
2014-Oct-26 14:33N 40°45' W 074°01'0 0.0
2014-Oct-26 13:33N 40°45' W 074°01'0 0.0
2014-Oct-26 12:33N 40°45' W 074°01'0 0.0
2014-Oct-26 11:33N 40°45' W 074°01'0 0.0
2014-Oct-26 10:33N 40°45' W 074°01'0 0.0
2014-Oct-26 09:33N 40°45' W 074°01'0 0.0
2014-Oct-26 08:33N 40°45' W 074°01'0 0.0
2014-Oct-26 07:33N 40°45' W 074°01'0 0.0
2014-Oct-26 06:33N 40°45' W 074°01'0 0.0
2014-Oct-26 05:33N 40°45' W 074°01'0 0.0
2014-Oct-26 04:33N 40°45' W 074°01'0 0.0
2014-Oct-26 03:33N 40°45' W 074°01'0 0.0
2014-Oct-26 02:33N 40°45' W 074°01'0 0.0
2014-Oct-26 01:33N 40°45' W 074°01'0 0.0
2014-Oct-26 00:33N 40°45' W 074°01'0 0.0
2014-Oct-25 23:33N 40°45' W 074°01'0 0.0
2014-Oct-25 22:33N 40°45' W 074°01'0 0.0
2014-Oct-25 21:33N 40°45' W 074°01'0 0.0
2014-Oct-25 20:33N 40°45' W 074°01'0 0.0
2014-Oct-25 19:33N 40°45' W 074°01'0 0.0
2014-Oct-25 18:33N 40°45' W 074°01'0 0.0
2014-Oct-25 17:33N 40°45' W 074°01'0 0.0
2014-Oct-25 16:33N 40°45' W 074°01'0 0.0
2014-Oct-25 15:33N 40°45' W 074°01'0 0.0
2014-Oct-25 14:33N 40°45' W 074°01'0 0.0
2014-Oct-25 13:33N 40°45' W 074°01'0 0.0
2014-Oct-25 12:33N 40°45' W 074°01'0 0.0
2014-Oct-25 11:33N 40°45' W 074°01'0 0.0
2014-Oct-25 10:33N 40°45' W 074°01'0 0.0
2014-Oct-25 09:28N 40°45' W 074°01'0 0.0
2014-Oct-25 08:33N 40°45' W 074°01'0 0.0
2014-Oct-25 07:33N 40°45' W 074°01'0 0.0
2014-Oct-25 06:33N 40°45' W 074°01'0 0.0
2014-Oct-25 05:34N 40°45' W 074°01'0 0.0
2014-Oct-25 04:33N 40°45' W 074°01'0 0.0
2014-Oct-25 03:33N 40°45' W 074°01'0 0.0
2014-Oct-25 02:33N 40°45' W 074°01'0 0.0
2014-Oct-25 01:33N 40°45' W 074°01'0 0.0
2014-Oct-25 00:33N 40°45' W 074°01'4 3.8
2014-Oct-24 23:33N 40°41' W 074°02'4 3.8
2014-Oct-24 22:33N 40°45' W 074°01'0 0.0
2014-Oct-24 21:33N 40°45' W 074°01'0 0.0
2014-Oct-24 20:33N 40°45' W 074°01'0 0.0
2014-Oct-24 19:33N 40°45' W 074°01'0 0.0
2014-Oct-24 18:33N 40°45' W 074°01'0 0.0
2014-Oct-24 17:33N 40°45' W 074°01'0 0.0
2014-Oct-24 16:33N 40°45' W 074°01'0 0.0
2014-Oct-24 15:33N 40°45' W 074°01'0 0.0
2014-Oct-24 14:33N 40°45' W 074°01'0 0.0
2014-Oct-24 13:33N 40°45' W 074°01'0 0.0
2014-Oct-24 12:33N 40°45' W 074°01'0 0.0
2014-Oct-24 11:33N 40°45' W 074°01'0 0.0
2014-Oct-24 10:33N 40°45' W 074°01'0 0.0
2014-Oct-24 09:34N 40°45' W 074°01'0 0.0
2014-Oct-24 08:33N 40°45' W 074°01'0 0.0
2014-Oct-24 07:33N 40°45' W 074°01'0 0.0
2014-Oct-24 06:34N 40°45' W 074°01'0 0.0
2014-Oct-24 05:33N 40°45' W 074°01'0 0.0
2014-Oct-24 04:33N 40°45' W 074°01'0 0.0
2014-Oct-24 03:34N 40°45' W 074°01'0 0.0
2014-Oct-24 02:34N 40°45' W 074°01'2 1.6
2014-Oct-24 01:33N 40°46' W 073°60'  
2014-Oct-19 04:12N 44°03' W 076°25'6 9.6
2014-Oct-19 03:33N 44°08' W 076°21'  

Dump ship's entire track history